sensor_id;sensor_type;location;lat;lon;timestamp;temperature;humidity
38514;DHT22;24282;48.400;10.808;2022-11-20T00:02:15;6.30;88.30
38514;DHT22;24282;48.400;10.808;2022-11-20T00:04:41;6.30;88.00
38514;DHT22;24282;48.400;10.808;2022-11-20T00:07:07;6.30;87.90
38514;DHT22;24282;48.400;10.808;2022-11-20T00:09:33;6.30;87.80
38514;DHT22;24282;48.400;10.808;2022-11-20T00:11:58;6.20;87.70
38514;DHT22;24282;48.400;10.808;2022-11-20T00:14:24;6.20;87.80
38514;DHT22;24282;48.400;10.808;2022-11-20T00:16:50;6.20;87.90
38514;DHT22;24282;48.400;10.808;2022-11-20T00:19:18;6.20;87.90
38514;DHT22;24282;48.400;10.808;2022-11-20T00:21:44;6.20;87.70
38514;DHT22;24282;48.400;10.808;2022-11-20T00:24:10;6.20;87.60
38514;DHT22;24282;48.400;10.808;2022-11-20T00:26:36;6.20;87.60
38514;DHT22;24282;48.400;10.808;2022-11-20T00:29:02;6.20;87.50
38514;DHT22;24282;48.400;10.808;2022-11-20T00:31:29;6.20;87.50
38514;DHT22;24282;48.400;10.808;2022-11-20T00:33:56;6.20;87.70
38514;DHT22;24282;48.400;10.808;2022-11-20T00:36:24;6.20;87.50
38514;DHT22;24282;48.400;10.808;2022-11-20T00:38:55;6.20;87.00
38514;DHT22;24282;48.400;10.808;2022-11-20T00:41:22;6.20;87.10
38514;DHT22;24282;48.400;10.808;2022-11-20T00:43:47;6.20;87.00
38514;DHT22;24282;48.400;10.808;2022-11-20T00:46:18;6.20;86.90
38514;DHT22;24282;48.400;10.808;2022-11-20T00:48:45;6.10;86.90
38514;DHT22;24282;48.400;10.808;2022-11-20T00:51:12;6.10;87.00
38514;DHT22;24282;48.400;10.808;2022-11-20T00:53:38;6.10;86.90
38514;DHT22;24282;48.400;10.808;2022-11-20T00:56:07;6.10;86.80
38514;DHT22;24282;48.400;10.808;2022-11-20T00:58:38;6.10;86.80
38514;DHT22;24282;48.400;10.808;2022-11-20T01:01:18;6.10;86.40
38514;DHT22;24282;48.400;10.808;2022-11-20T01:03:47;6.20;86.30
38514;DHT22;24282;48.400;10.808;2022-11-20T01:06:16;6.10;86.10
38514;DHT22;24282;48.400;10.808;2022-11-20T01:08:43;6.00;86.60
38514;DHT22;24282;48.400;10.808;2022-11-20T01:11:11;6.00;86.80
38514;DHT22;24282;48.400;10.808;2022-11-20T01:13:38;6.00;87.00
38514;DHT22;24282;48.400;10.808;2022-11-20T01:16:13;6.00;87.30
38514;DHT22;24282;48.400;10.808;2022-11-20T01:18:42;6.00;87.30
38514;DHT22;24282;48.400;10.808;2022-11-20T01:21:10;6.00;87.20
38514;DHT22;24282;48.400;10.808;2022-11-20T01:23:38;6.00;86.90
38514;DHT22;24282;48.400;10.808;2022-11-20T01:26:07;6.00;86.80
38514;DHT22;24282;48.400;10.808;2022-11-20T01:28:33;6.00;86.20
38514;DHT22;24282;48.400;10.808;2022-11-20T01:31:00;6.00;86.20
38514;DHT22;24282;48.400;10.808;2022-11-20T01:33:26;6.00;86.30
38514;DHT22;24282;48.400;10.808;2022-11-20T01:35:52;6.00;86.20
38514;DHT22;24282;48.400;10.808;2022-11-20T01:38:18;6.00;85.80
38514;DHT22;24282;48.400;10.808;2022-11-20T01:40:53;5.90;85.90
38514;DHT22;24282;48.400;10.808;2022-11-20T01:43:20;5.90;86.00
38514;DHT22;24282;48.400;10.808;2022-11-20T01:54:19;5.80;86.50
38514;DHT22;24282;48.400;10.808;2022-11-20T01:56:48;5.80;86.40
38514;DHT22;24282;48.400;10.808;2022-11-20T01:59:18;5.80;86.50
38514;DHT22;24282;48.400;10.808;2022-11-20T02:01:44;5.70;86.30
38514;DHT22;24282;48.400;10.808;2022-11-20T02:04:10;5.70;86.50
38514;DHT22;24282;48.400;10.808;2022-11-20T02:06:42;5.80;86.30
38514;DHT22;24282;48.400;10.808;2022-11-20T02:09:09;5.80;86.20
38514;DHT22;24282;48.400;10.808;2022-11-20T02:11:35;5.80;86.20
38514;DHT22;24282;48.400;10.808;2022-11-20T02:14:00;5.80;86.30
38514;DHT22;24282;48.400;10.808;2022-11-20T02:16:33;5.80;86.70
38514;DHT22;24282;48.400;10.808;2022-11-20T02:19:01;5.80;86.20
38514;DHT22;24282;48.400;10.808;2022-11-20T02:24:17;5.80;85.90
38514;DHT22;24282;48.400;10.808;2022-11-20T02:27:07;5.70;86.00
38514;DHT22;24282;48.400;10.808;2022-11-20T02:29:52;5.70;86.00
38514;DHT22;24282;48.400;10.808;2022-11-20T02:32:23;5.70;85.90
38514;DHT22;24282;48.400;10.808;2022-11-20T02:34:49;5.60;86.00
38514;DHT22;24282;48.400;10.808;2022-11-20T02:37:15;5.60;86.10
38514;DHT22;24282;48.400;10.808;2022-11-20T02:39:44;5.70;85.40
38514;DHT22;24282;48.400;10.808;2022-11-20T02:42:10;5.60;85.70
38514;DHT22;24282;48.400;10.808;2022-11-20T02:44:35;5.60;85.90
38514;DHT22;24282;48.400;10.808;2022-11-20T02:47:01;5.60;86.00
38514;DHT22;24282;48.400;10.808;2022-11-20T02:49:27;5.60;86.00
38514;DHT22;24282;48.400;10.808;2022-11-20T02:51:53;5.60;85.60
38514;DHT22;24282;48.400;10.808;2022-11-20T02:54:18;5.50;85.80
38514;DHT22;24282;48.400;10.808;2022-11-20T02:56:44;5.50;86.00
38514;DHT22;24282;48.400;10.808;2022-11-20T02:59:10;5.50;85.90
38514;DHT22;24282;48.400;10.808;2022-11-20T03:01:35;5.50;86.00
38514;DHT22;24282;48.400;10.808;2022-11-20T03:04:01;5.50;85.90
38514;DHT22;24282;48.400;10.808;2022-11-20T03:06:27;5.50;85.90
38514;DHT22;24282;48.400;10.808;2022-11-20T03:08:53;5.50;85.70
38514;DHT22;24282;48.400;10.808;2022-11-20T03:11:19;5.50;85.80
38514;DHT22;24282;48.400;10.808;2022-11-20T03:13:45;5.50;85.90
38514;DHT22;24282;48.400;10.808;2022-11-20T03:16:16;5.50;85.60
38514;DHT22;24282;48.400;10.808;2022-11-20T03:18:42;5.50;85.80
38514;DHT22;24282;48.400;10.808;2022-11-20T03:21:09;5.50;85.70
38514;DHT22;24282;48.400;10.808;2022-11-20T03:23:35;5.50;85.80
38514;DHT22;24282;48.400;10.808;2022-11-20T03:26:22;5.50;85.80
38514;DHT22;24282;48.400;10.808;2022-11-20T03:28:56;5.50;85.60
38514;DHT22;24282;48.400;10.808;2022-11-20T03:31:31;5.60;85.30
38514;DHT22;24282;48.400;10.808;2022-11-20T03:33:58;5.50;85.50
38514;DHT22;24282;48.400;10.808;2022-11-20T03:36:25;5.60;85.40
38514;DHT22;24282;48.400;10.808;2022-11-20T03:38:50;5.50;85.60
38514;DHT22;24282;48.400;10.808;2022-11-20T03:41:23;5.50;86.00
38514;DHT22;24282;48.400;10.808;2022-11-20T03:43:57;5.50;85.90
38514;DHT22;24282;48.400;10.808;2022-11-20T03:46:24;5.60;85.80
38514;DHT22;24282;48.400;10.808;2022-11-20T03:48:50;5.50;85.90
38514;DHT22;24282;48.400;10.808;2022-11-20T03:51:18;5.50;86.00
38514;DHT22;24282;48.400;10.808;2022-11-20T03:53:46;5.50;86.00
38514;DHT22;24282;48.400;10.808;2022-11-20T03:56:14;5.50;85.70
38514;DHT22;24282;48.400;10.808;2022-11-20T03:58:40;5.60;85.40
38514;DHT22;24282;48.400;10.808;2022-11-20T04:03:37;5.50;85.30
38514;DHT22;24282;48.400;10.808;2022-11-20T04:06:05;5.60;85.40
38514;DHT22;24282;48.400;10.808;2022-11-20T04:08:31;5.50;85.50
38514;DHT22;24282;48.400;10.808;2022-11-20T04:11:12;5.50;85.70
38514;DHT22;24282;48.400;10.808;2022-11-20T04:13:39;5.50;85.80
38514;DHT22;24282;48.400;10.808;2022-11-20T04:16:06;5.50;85.80
38514;DHT22;24282;48.400;10.808;2022-11-20T04:18:33;5.50;85.70
38514;DHT22;24282;48.400;10.808;2022-11-20T04:20:59;5.60;85.10
38514;DHT22;24282;48.400;10.808;2022-11-20T04:23:25;5.50;85.50
38514;DHT22;24282;48.400;10.808;2022-11-20T04:25:51;5.50;85.30
38514;DHT22;24282;48.400;10.808;2022-11-20T04:28:17;5.50;85.50
38514;DHT22;24282;48.400;10.808;2022-11-20T04:30:43;5.50;85.80
38514;DHT22;24282;48.400;10.808;2022-11-20T04:33:08;5.50;85.90
38514;DHT22;24282;48.400;10.808;2022-11-20T04:35:37;5.50;85.80
38514;DHT22;24282;48.400;10.808;2022-11-20T04:38:03;5.50;85.50
38514;DHT22;24282;48.400;10.808;2022-11-20T04:40:30;5.50;85.40
38514;DHT22;24282;48.400;10.808;2022-11-20T04:42:56;5.50;85.70
38514;DHT22;24282;48.400;10.808;2022-11-20T04:45:23;5.50;85.70
38514;DHT22;24282;48.400;10.808;2022-11-20T04:47:49;5.50;85.90
38514;DHT22;24282;48.400;10.808;2022-11-20T04:50:15;5.40;85.80
38514;DHT22;24282;48.400;10.808;2022-11-20T04:52:41;5.40;85.80
38514;DHT22;24282;48.400;10.808;2022-11-20T04:55:07;5.40;85.90
38514;DHT22;24282;48.400;10.808;2022-11-20T04:57:33;5.40;85.60
38514;DHT22;24282;48.400;10.808;2022-11-20T04:59:58;5.40;85.80
38514;DHT22;24282;48.400;10.808;2022-11-20T05:02:24;5.40;86.10
38514;DHT22;24282;48.400;10.808;2022-11-20T05:04:50;5.30;86.10
38514;DHT22;24282;48.400;10.808;2022-11-20T05:07:15;5.40;85.60
38514;DHT22;24282;48.400;10.808;2022-11-20T05:09:41;5.40;85.70
38514;DHT22;24282;48.400;10.808;2022-11-20T05:12:10;5.40;85.80
38514;DHT22;24282;48.400;10.808;2022-11-20T05:14:36;5.30;85.70
38514;DHT22;24282;48.400;10.808;2022-11-20T05:17:01;5.30;85.80
38514;DHT22;24282;48.400;10.808;2022-11-20T05:19:27;5.20;86.10
38514;DHT22;24282;48.400;10.808;2022-11-20T05:21:53;5.30;85.90
38514;DHT22;24282;48.400;10.808;2022-11-20T05:24:19;5.20;85.80
38514;DHT22;24282;48.400;10.808;2022-11-20T05:26:45;5.30;86.00
38514;DHT22;24282;48.400;10.808;2022-11-20T05:29:13;5.30;85.80
38514;DHT22;24282;48.400;10.808;2022-11-20T05:31:40;5.30;85.40
38514;DHT22;24282;48.400;10.808;2022-11-20T05:34:06;5.30;85.50
38514;DHT22;24282;48.400;10.808;2022-11-20T05:36:32;5.20;85.70
38514;DHT22;24282;48.400;10.808;2022-11-20T05:39:01;5.20;85.90
38514;DHT22;24282;48.400;10.808;2022-11-20T05:41:27;5.20;85.80
38514;DHT22;24282;48.400;10.808;2022-11-20T05:43:53;5.20;86.00
38514;DHT22;24282;48.400;10.808;2022-11-20T05:46:22;5.20;86.10
38514;DHT22;24282;48.400;10.808;2022-11-20T05:48:47;5.10;85.80
38514;DHT22;24282;48.400;10.808;2022-11-20T05:51:18;5.10;85.60
38514;DHT22;24282;48.400;10.808;2022-11-20T05:53:47;5.10;85.70
38514;DHT22;24282;48.400;10.808;2022-11-20T05:56:19;5.20;85.60
38514;DHT22;24282;48.400;10.808;2022-11-20T05:58:45;5.20;85.40
38514;DHT22;24282;48.400;10.808;2022-11-20T06:01:19;5.20;85.50
38514;DHT22;24282;48.400;10.808;2022-11-20T06:03:46;5.20;85.50
38514;DHT22;24282;48.400;10.808;2022-11-20T06:06:14;5.20;85.50
38514;DHT22;24282;48.400;10.808;2022-11-20T06:08:40;5.10;85.60
38514;DHT22;24282;48.400;10.808;2022-11-20T06:11:07;5.10;85.80
38514;DHT22;24282;48.400;10.808;2022-11-20T06:13:33;5.10;86.10
38514;DHT22;24282;48.400;10.808;2022-11-20T06:15:59;5.10;86.20
38514;DHT22;24282;48.400;10.808;2022-11-20T06:18:27;5.10;86.30
38514;DHT22;24282;48.400;10.808;2022-11-20T06:21:23;5.10;86.20
38514;DHT22;24282;48.400;10.808;2022-11-20T06:23:50;5.10;86.30
38514;DHT22;24282;48.400;10.808;2022-11-20T06:26:21;5.10;86.10
38514;DHT22;24282;48.400;10.808;2022-11-20T06:28:47;5.10;86.20
38514;DHT22;24282;48.400;10.808;2022-11-20T06:31:16;5.10;86.30
38514;DHT22;24282;48.400;10.808;2022-11-20T06:33:42;5.10;86.00
38514;DHT22;24282;48.400;10.808;2022-11-20T06:36:10;5.20;85.60
38514;DHT22;24282;48.400;10.808;2022-11-20T06:38:37;5.20;85.50
38514;DHT22;24282;48.400;10.808;2022-11-20T06:41:04;5.10;85.80
38514;DHT22;24282;48.400;10.808;2022-11-20T06:43:30;5.10;86.00
38514;DHT22;24282;48.400;10.808;2022-11-20T06:45:57;5.10;86.30
38514;DHT22;24282;48.400;10.808;2022-11-20T06:48:23;5.10;86.30
38514;DHT22;24282;48.400;10.808;2022-11-20T06:50:50;5.10;86.40
38514;DHT22;24282;48.400;10.808;2022-11-20T06:53:15;5.10;86.20
38514;DHT22;24282;48.400;10.808;2022-11-20T06:55:46;5.10;85.90
38514;DHT22;24282;48.400;10.808;2022-11-20T06:58:12;5.20;85.70
38514;DHT22;24282;48.400;10.808;2022-11-20T07:00:38;5.20;85.10
38514;DHT22;24282;48.400;10.808;2022-11-20T07:03:05;5.20;84.90
38514;DHT22;24282;48.400;10.808;2022-11-20T07:05:32;5.30;84.90
38514;DHT22;24282;48.400;10.808;2022-11-20T07:07:58;5.40;84.50
38514;DHT22;24282;48.400;10.808;2022-11-20T07:10:24;5.40;84.60
38514;DHT22;24282;48.400;10.808;2022-11-20T07:12:50;5.40;84.80
38514;DHT22;24282;48.400;10.808;2022-11-20T07:15:17;5.40;84.50
38514;DHT22;24282;48.400;10.808;2022-11-20T07:17:45;5.50;83.70
38514;DHT22;24282;48.400;10.808;2022-11-20T07:20:14;5.50;83.60
38514;DHT22;24282;48.400;10.808;2022-11-20T07:22:40;5.60;83.60
38514;DHT22;24282;48.400;10.808;2022-11-20T07:25:07;5.60;83.40
38514;DHT22;24282;48.400;10.808;2022-11-20T07:27:33;5.60;83.40
38514;DHT22;24282;48.400;10.808;2022-11-20T07:29:59;5.70;83.20
38514;DHT22;24282;48.400;10.808;2022-11-20T07:32:25;5.70;83.00
38514;DHT22;24282;48.400;10.808;2022-11-20T07:34:55;5.70;83.30
38514;DHT22;24282;48.400;10.808;2022-11-20T07:37:21;5.70;83.40
38514;DHT22;24282;48.400;10.808;2022-11-20T07:39:46;5.80;82.90
38514;DHT22;24282;48.400;10.808;2022-11-20T07:42:12;5.80;82.90
38514;DHT22;24282;48.400;10.808;2022-11-20T07:44:38;5.80;82.70
38514;DHT22;24282;48.400;10.808;2022-11-20T07:47:04;5.90;82.60
38514;DHT22;24282;48.400;10.808;2022-11-20T07:49:30;5.90;82.20
38514;DHT22;24282;48.400;10.808;2022-11-20T07:51:55;5.80;82.60
38514;DHT22;24282;48.400;10.808;2022-11-20T07:54:22;6.00;82.60
38514;DHT22;24282;48.400;10.808;2022-11-20T07:56:48;6.00;82.00
38514;DHT22;24282;48.400;10.808;2022-11-20T07:59:15;6.00;82.30
38514;DHT22;24282;48.400;10.808;2022-11-20T08:01:41;6.00;82.60
38514;DHT22;24282;48.400;10.808;2022-11-20T08:04:08;6.00;82.60
38514;DHT22;24282;48.400;10.808;2022-11-20T08:06:35;6.00;82.30
38514;DHT22;24282;48.400;10.808;2022-11-20T08:09:01;6.00;82.20
38514;DHT22;24282;48.400;10.808;2022-11-20T08:11:26;6.10;82.30
38514;DHT22;24282;48.400;10.808;2022-11-20T08:14:11;6.20;81.10
38514;DHT22;24282;48.400;10.808;2022-11-20T08:16:40;6.20;80.90
38514;DHT22;24282;48.400;10.808;2022-11-20T08:19:06;6.20;81.50
38514;DHT22;24282;48.400;10.808;2022-11-20T08:21:32;6.30;81.30
38514;DHT22;24282;48.400;10.808;2022-11-20T08:23:58;6.30;81.50
38514;DHT22;24282;48.400;10.808;2022-11-20T08:26:25;6.20;81.60
38514;DHT22;24282;48.400;10.808;2022-11-20T08:28:57;6.20;81.50
38514;DHT22;24282;48.400;10.808;2022-11-20T08:31:26;6.20;81.00
38514;DHT22;24282;48.400;10.808;2022-11-20T08:33:53;6.30;81.30
38514;DHT22;24282;48.400;10.808;2022-11-20T08:36:20;6.30;80.80
38514;DHT22;24282;48.400;10.808;2022-11-20T08:38:51;6.20;80.90
38514;DHT22;24282;48.400;10.808;2022-11-20T08:41:17;6.20;81.40
38514;DHT22;24282;48.400;10.808;2022-11-20T08:44:00;6.30;80.90
38514;DHT22;24282;48.400;10.808;2022-11-20T08:46:30;6.20;81.40
38514;DHT22;24282;48.400;10.808;2022-11-20T08:48:58;6.20;81.70
38514;DHT22;24282;48.400;10.808;2022-11-20T08:51:27;6.20;81.40
38514;DHT22;24282;48.400;10.808;2022-11-20T08:53:52;6.20;81.80
38514;DHT22;24282;48.400;10.808;2022-11-20T08:56:18;6.20;82.00
38514;DHT22;24282;48.400;10.808;2022-11-20T08:58:44;6.30;82.00
38514;DHT22;24282;48.400;10.808;2022-11-20T09:01:10;6.30;81.80
38514;DHT22;24282;48.400;10.808;2022-11-20T09:03:36;6.30;81.90
38514;DHT22;24282;48.400;10.808;2022-11-20T09:06:05;6.30;82.00
38514;DHT22;24282;48.400;10.808;2022-11-20T09:08:32;6.40;81.60
38514;DHT22;24282;48.400;10.808;2022-11-20T09:10:58;6.40;82.00
38514;DHT22;24282;48.400;10.808;2022-11-20T09:13:26;6.40;81.90
38514;DHT22;24282;48.400;10.808;2022-11-20T09:15:57;6.40;81.90
38514;DHT22;24282;48.400;10.808;2022-11-20T09:18:23;6.50;82.10
38514;DHT22;24282;48.400;10.808;2022-11-20T09:20:49;6.50;81.70
38514;DHT22;24282;48.400;10.808;2022-11-20T09:23:15;6.60;80.90
38514;DHT22;24282;48.400;10.808;2022-11-20T09:25:42;6.50;80.90
38514;DHT22;24282;48.400;10.808;2022-11-20T09:28:07;6.60;80.90
38514;DHT22;24282;48.400;10.808;2022-11-20T09:30:33;6.60;80.90
38514;DHT22;24282;48.400;10.808;2022-11-20T09:32:59;6.60;81.50
38514;DHT22;24282;48.400;10.808;2022-11-20T09:35:25;6.70;80.80
38514;DHT22;24282;48.400;10.808;2022-11-20T09:37:51;6.70;81.10
38514;DHT22;24282;48.400;10.808;2022-11-20T09:40:21;6.80;80.90
38514;DHT22;24282;48.400;10.808;2022-11-20T09:42:52;6.70;81.10
38514;DHT22;24282;48.400;10.808;2022-11-20T09:45:33;6.90;80.20
38514;DHT22;24282;48.400;10.808;2022-11-20T09:56:21;7.00;80.80
38514;DHT22;24282;48.400;10.808;2022-11-20T09:58:51;7.10;80.00
38514;DHT22;24282;48.400;10.808;2022-11-20T10:01:19;7.00;79.70
38514;DHT22;24282;48.400;10.808;2022-11-20T10:06:33;7.00;80.20
38514;DHT22;24282;48.400;10.808;2022-11-20T10:22:47;7.10;79.20
38514;DHT22;24282;48.400;10.808;2022-11-20T10:25:15;7.20;78.60
38514;DHT22;24282;48.400;10.808;2022-11-20T10:28:00;7.10;79.30
38514;DHT22;24282;48.400;10.808;2022-11-20T10:30:37;7.10;79.50
38514;DHT22;24282;48.400;10.808;2022-11-20T10:33:17;7.20;78.70
38514;DHT22;24282;48.400;10.808;2022-11-20T10:35:48;7.20;78.90
38514;DHT22;24282;48.400;10.808;2022-11-20T10:38:37;7.20;78.60
38514;DHT22;24282;48.400;10.808;2022-11-20T10:41:06;7.10;78.20
38514;DHT22;24282;48.400;10.808;2022-11-20T10:44:00;7.20;78.20
38514;DHT22;24282;48.400;10.808;2022-11-20T10:46:33;7.20;78.20
38514;DHT22;24282;48.400;10.808;2022-11-20T10:48:59;7.20;78.20
38514;DHT22;24282;48.400;10.808;2022-11-20T10:54:39;7.20;79.50
38514;DHT22;24282;48.400;10.808;2022-11-20T11:02:41;7.20;78.60
38514;DHT22;24282;48.400;10.808;2022-11-20T11:05:45;7.20;78.90
38514;DHT22;24282;48.400;10.808;2022-11-20T11:08:13;7.20;77.90
38514;DHT22;24282;48.400;10.808;2022-11-20T11:10:52;7.30;77.40
38514;DHT22;24282;48.400;10.808;2022-11-20T11:13:23;7.20;78.30
38514;DHT22;24282;48.400;10.808;2022-11-20T11:15:49;7.20;78.60
38514;DHT22;24282;48.400;10.808;2022-11-20T11:18:32;7.20;78.90
38514;DHT22;24282;48.400;10.808;2022-11-20T11:21:00;7.20;79.30
38514;DHT22;24282;48.400;10.808;2022-11-20T11:26:03;7.20;79.30
38514;DHT22;24282;48.400;10.808;2022-11-20T11:28:30;7.20;79.10
38514;DHT22;24282;48.400;10.808;2022-11-20T11:30:56;7.20;78.90
38514;DHT22;24282;48.400;10.808;2022-11-20T11:33:22;7.20;78.90
38514;DHT22;24282;48.400;10.808;2022-11-20T11:35:52;7.20;78.80
38514;DHT22;24282;48.400;10.808;2022-11-20T11:38:38;7.20;79.30
38514;DHT22;24282;48.400;10.808;2022-11-20T11:41:05;7.20;79.30
38514;DHT22;24282;48.400;10.808;2022-11-20T11:43:34;7.10;79.00
38514;DHT22;24282;48.400;10.808;2022-11-20T11:46:31;7.20;78.80
38514;DHT22;24282;48.400;10.808;2022-11-20T11:54:04;7.10;78.70
38514;DHT22;24282;48.400;10.808;2022-11-20T11:56:34;7.20;78.40
38514;DHT22;24282;48.400;10.808;2022-11-20T11:59:05;7.10;78.90
38514;DHT22;24282;48.400;10.808;2022-11-20T12:01:44;7.20;78.50
38514;DHT22;24282;48.400;10.808;2022-11-20T12:04:52;7.20;78.90
38514;DHT22;24282;48.400;10.808;2022-11-20T12:09:54;7.20;79.90
38514;DHT22;24282;48.400;10.808;2022-11-20T12:12:29;7.20;79.30
38514;DHT22;24282;48.400;10.808;2022-11-20T12:14:56;7.20;79.80
38514;DHT22;24282;48.400;10.808;2022-11-20T12:17:22;7.20;79.80
38514;DHT22;24282;48.400;10.808;2022-11-20T12:19:49;7.10;80.20
38514;DHT22;24282;48.400;10.808;2022-11-20T12:30:10;7.10;80.30
38514;DHT22;24282;48.400;10.808;2022-11-20T12:32:43;7.10;80.60
38514;DHT22;24282;48.400;10.808;2022-11-20T12:35:48;7.10;80.50
38514;DHT22;24282;48.400;10.808;2022-11-20T12:43:44;7.10;80.60
38514;DHT22;24282;48.400;10.808;2022-11-20T12:46:46;7.10;81.00
38514;DHT22;24282;48.400;10.808;2022-11-20T12:49:37;7.10;80.80
38514;DHT22;24282;48.400;10.808;2022-11-20T13:06:54;7.20;79.70
38514;DHT22;24282;48.400;10.808;2022-11-20T13:09:21;7.20;79.90
38514;DHT22;24282;48.400;10.808;2022-11-20T13:12:03;7.20;80.10
38514;DHT22;24282;48.400;10.808;2022-11-20T13:14:40;7.20;80.10
38514;DHT22;24282;48.400;10.808;2022-11-20T13:17:23;7.20;80.10
38514;DHT22;24282;48.400;10.808;2022-11-20T13:19:53;7.10;80.30
38514;DHT22;24282;48.400;10.808;2022-11-20T13:22:46;7.20;80.30
38514;DHT22;24282;48.400;10.808;2022-11-20T13:27:50;7.20;79.80
38514;DHT22;24282;48.400;10.808;2022-11-20T13:30:21;7.20;80.20
38514;DHT22;24282;48.400;10.808;2022-11-20T13:35:33;7.20;80.10
38514;DHT22;24282;48.400;10.808;2022-11-20T13:38:11;7.20;80.20
38514;DHT22;24282;48.400;10.808;2022-11-20T13:40:49;7.20;80.30
38514;DHT22;24282;48.400;10.808;2022-11-20T13:43:37;7.10;80.40
38514;DHT22;24282;48.400;10.808;2022-11-20T13:46:07;7.20;80.60
38514;DHT22;24282;48.400;10.808;2022-11-20T13:59:35;7.10;81.10
38514;DHT22;24282;48.400;10.808;2022-11-20T14:02:16;7.10;80.90
38514;DHT22;24282;48.400;10.808;2022-11-20T14:04:48;7.20;80.80
38514;DHT22;24282;48.400;10.808;2022-11-20T14:07:16;7.10;81.10
38514;DHT22;24282;48.400;10.808;2022-11-20T14:09:53;7.10;80.90
38514;DHT22;24282;48.400;10.808;2022-11-20T14:12:23;7.10;80.70
38514;DHT22;24282;48.400;10.808;2022-11-20T14:14:51;7.10;80.60
38514;DHT22;24282;48.400;10.808;2022-11-20T14:17:21;7.10;80.80
38514;DHT22;24282;48.400;10.808;2022-11-20T14:19:49;7.10;81.20
38514;DHT22;24282;48.400;10.808;2022-11-20T14:24:47;7.20;80.60
38514;DHT22;24282;48.400;10.808;2022-11-20T14:27:20;7.20;80.80
38514;DHT22;24282;48.400;10.808;2022-11-20T14:29:49;7.20;80.20
38514;DHT22;24282;48.400;10.808;2022-11-20T14:32:17;7.10;80.80
38514;DHT22;24282;48.400;10.808;2022-11-20T14:34:46;7.00;81.00
38514;DHT22;24282;48.400;10.808;2022-11-20T14:37:18;7.00;81.10
38514;DHT22;24282;48.400;10.808;2022-11-20T14:39:55;7.00;81.30
38514;DHT22;24282;48.400;10.808;2022-11-20T14:42:26;7.00;81.50
38514;DHT22;24282;48.400;10.808;2022-11-20T14:44:55;7.00;81.50
38514;DHT22;24282;48.400;10.808;2022-11-20T14:47:25;7.00;80.90
38514;DHT22;24282;48.400;10.808;2022-11-20T14:49:53;7.00;81.10
38514;DHT22;24282;48.400;10.808;2022-11-20T14:52:22;7.00;81.20
38514;DHT22;24282;48.400;10.808;2022-11-20T14:59:46;6.90;81.40
38514;DHT22;24282;48.400;10.808;2022-11-20T15:02:13;7.00;81.40
38514;DHT22;24282;48.400;10.808;2022-11-20T15:04:59;7.00;81.20
38514;DHT22;24282;48.400;10.808;2022-11-20T15:07:27;7.00;81.10
38514;DHT22;24282;48.400;10.808;2022-11-20T15:10:08;7.00;80.90
38514;DHT22;24282;48.400;10.808;2022-11-20T15:12:37;6.90;81.10
38514;DHT22;24282;48.400;10.808;2022-11-20T15:15:05;7.00;81.20
38514;DHT22;24282;48.400;10.808;2022-11-20T15:17:32;6.90;81.20
38514;DHT22;24282;48.400;10.808;2022-11-20T15:20:01;6.90;81.40
38514;DHT22;24282;48.400;10.808;2022-11-20T15:22:29;6.90;81.50
38514;DHT22;24282;48.400;10.808;2022-11-20T15:24:55;6.90;81.80
38514;DHT22;24282;48.400;10.808;2022-11-20T15:27:20;6.90;81.80
38514;DHT22;24282;48.400;10.808;2022-11-20T15:29:46;6.90;81.90
38514;DHT22;24282;48.400;10.808;2022-11-20T15:32:12;6.90;81.90
38514;DHT22;24282;48.400;10.808;2022-11-20T15:34:38;6.90;81.70
38514;DHT22;24282;48.400;10.808;2022-11-20T15:37:03;6.90;81.80
38514;DHT22;24282;48.400;10.808;2022-11-20T15:39:29;6.90;81.80
38514;DHT22;24282;48.400;10.808;2022-11-20T15:41:55;6.80;81.80
38514;DHT22;24282;48.400;10.808;2022-11-20T15:44:20;6.80;81.60
38514;DHT22;24282;48.400;10.808;2022-11-20T15:46:49;6.90;81.30
38514;DHT22;24282;48.400;10.808;2022-11-20T15:49:16;6.90;81.20
38514;DHT22;24282;48.400;10.808;2022-11-20T15:51:47;6.80;81.30
38514;DHT22;24282;48.400;10.808;2022-11-20T15:54:15;6.80;81.40
38514;DHT22;24282;48.400;10.808;2022-11-20T15:56:42;6.80;81.30
38514;DHT22;24282;48.400;10.808;2022-11-20T15:59:08;6.90;80.90
38514;DHT22;24282;48.400;10.808;2022-11-20T16:01:34;6.80;80.50
38514;DHT22;24282;48.400;10.808;2022-11-20T16:04:00;6.80;80.60
38514;DHT22;24282;48.400;10.808;2022-11-20T16:06:26;6.80;80.80
38514;DHT22;24282;48.400;10.808;2022-11-20T16:08:52;6.80;80.70
38514;DHT22;24282;48.400;10.808;2022-11-20T16:11:18;6.80;80.70
38514;DHT22;24282;48.400;10.808;2022-11-20T16:13:44;6.80;81.10
38514;DHT22;24282;48.400;10.808;2022-11-20T16:16:32;6.80;81.50
38514;DHT22;24282;48.400;10.808;2022-11-20T16:18:59;6.80;81.50
38514;DHT22;24282;48.400;10.808;2022-11-20T16:21:25;6.70;81.30
38514;DHT22;24282;48.400;10.808;2022-11-20T16:24:07;6.70;81.40
38514;DHT22;24282;48.400;10.808;2022-11-20T16:26:34;6.70;81.60
38514;DHT22;24282;48.400;10.808;2022-11-20T16:29:01;6.70;81.90
38514;DHT22;24282;48.400;10.808;2022-11-20T16:31:28;6.70;81.70
38514;DHT22;24282;48.400;10.808;2022-11-20T16:33:59;6.70;81.80
38514;DHT22;24282;48.400;10.808;2022-11-20T16:36:26;6.70;82.00
38514;DHT22;24282;48.400;10.808;2022-11-20T16:39:00;6.60;82.10
38514;DHT22;24282;48.400;10.808;2022-11-20T16:41:27;6.60;82.10
38514;DHT22;24282;48.400;10.808;2022-11-20T16:43:55;6.60;82.30
38514;DHT22;24282;48.400;10.808;2022-11-20T16:46:26;6.60;82.60
38514;DHT22;24282;48.400;10.808;2022-11-20T16:48:57;6.60;82.20
38514;DHT22;24282;48.400;10.808;2022-11-20T16:51:24;6.50;82.20
38514;DHT22;24282;48.400;10.808;2022-11-20T16:53:51;6.50;82.20
38514;DHT22;24282;48.400;10.808;2022-11-20T16:56:19;6.50;81.00
38514;DHT22;24282;48.400;10.808;2022-11-20T16:58:47;6.50;81.20
38514;DHT22;24282;48.400;10.808;2022-11-20T17:01:17;6.40;80.90
38514;DHT22;24282;48.400;10.808;2022-11-20T17:03:45;6.40;80.80
38514;DHT22;24282;48.400;10.808;2022-11-20T17:06:19;6.40;81.40
38514;DHT22;24282;48.400;10.808;2022-11-20T17:08:48;6.40;81.60
38514;DHT22;24282;48.400;10.808;2022-11-20T17:11:18;6.30;81.60
38514;DHT22;24282;48.400;10.808;2022-11-20T17:13:45;6.30;81.40
38514;DHT22;24282;48.400;10.808;2022-11-20T17:16:13;6.20;81.60
38514;DHT22;24282;48.400;10.808;2022-11-20T17:18:40;6.20;81.90
38514;DHT22;24282;48.400;10.808;2022-11-20T17:21:06;6.20;81.80
38514;DHT22;24282;48.400;10.808;2022-11-20T17:23:34;6.20;82.00
38514;DHT22;24282;48.400;10.808;2022-11-20T17:26:02;6.10;81.80
38514;DHT22;24282;48.400;10.808;2022-11-20T17:28:28;6.10;81.90
38514;DHT22;24282;48.400;10.808;2022-11-20T17:31:02;6.00;82.00
38514;DHT22;24282;48.400;10.808;2022-11-20T17:33:28;6.00;82.00